Time;durP1;ratioP1;P1;durP2;ratioP2;P2;SDS_P1;SDS_P2;PMS_P1;PMS_P2;Temp;Humidity;BMP_temperature;BMP_pressure;BME280_temperature;BME280_humidity;BME280_pressure;Samples;Min_cycle;Max_cycle;Signal;HPM_P1;HPM_P2
2024/01/23 00:00:08;;;;;;;;;17.25;11.00;;;;;3.92;82.38;100079.83;112796;240;40885;-52
2024/01/23 00:03:08;;;;;;;;;25.00;17.75;;;;;3.86;82.87;100090.33;112788;240;39435;-52
2024/01/23 00:05:48;;;;;;;;;26.00;20.00;;;;;3.84;82.87;100096.20;112846;240;39803;-53
2024/01/23 00:08:32;;;;;;;;;19.00;12.67;;;;;3.82;83.09;100094.91;112802;240;39445;-53
2024/01/23 00:11:13;;;;;;;;;17.25;12.50;;;;;3.80;83.26;100096.22;112810;240;40554;-52
2024/01/23 00:13:50;;;;;;;;;13.00;11.00;;;;;3.76;83.64;100097.13;112789;240;39925;-52
2024/01/23 00:16:33;;;;;;;;;12.50;11.00;;;;;3.74;83.65;100101.98;112794;240;39264;-55
2024/01/23 00:19:16;;;;;;;;;20.00;14.00;;;;;3.76;84.05;100103.93;112793;240;39406;-55
2024/01/23 00:21:52;;;;;;;;;17.50;13.25;;;;;3.76;84.26;100101.26;112809;240;40279;-55
2024/01/23 00:24:26;;;;;;;;;15.75;11.00;;;;;3.79;84.33;100098.13;112815;240;40833;-52
2024/01/23 00:27:07;;;;;;;;;20.00;14.00;;;;;3.85;84.50;100104.65;112799;240;39994;-52
2024/01/23 00:29:44;;;;;;;;;21.00;17.00;;;;;3.87;84.37;100105.12;112792;240;39375;-54
2024/01/23 00:32:30;;;;;;;;;19.00;14.00;;;;;3.93;84.37;100104.88;112772;240;39449;-54
2024/01/23 00:35:09;;;;;;;;;15.50;11.75;;;;;3.95;84.43;100107.52;112802;240;40797;-54
2024/01/23 00:37:45;;;;;;;;;20.00;13.00;;;;;3.97;84.33;100105.55;112799;240;39756;-54
2024/01/23 00:40:24;;;;;;;;;11.50;10.25;;;;;3.93;84.24;100102.08;112829;240;39496;-51
2024/01/23 00:43:14;;;;;;;;;20.00;16.00;;;;;3.91;84.46;100100.95;112777;240;40158;-51
2024/01/23 00:45:47;;;;;;;;;15.00;10.67;;;;;3.86;84.54;100098.27;112807;240;40101;-54
2024/01/23 00:48:26;;;;;;;;;11.25;9.25;;;;;3.81;84.65;100098.83;112784;240;39555;-54
2024/01/23 00:51:06;;;;;;;;;17.25;13.50;;;;;3.78;84.73;100092.73;112788;240;39877;-55
2024/01/23 00:53:44;;;;;;;;;22.67;15.00;;;;;3.76;84.60;100093.22;112778;240;40103;-56
2024/01/23 00:56:22;;;;;;;;;22.00;15.00;;;;;3.73;84.77;100093.19;112772;240;39257;-52
2024/01/23 00:59:01;;;;;;;;;14.00;12.00;;;;;3.70;84.93;100098.83;112799;240;40140;-52
2024/01/23 01:01:43;;;;;;;;;16.00;12.00;;;;;3.68;85.00;100105.95;112798;240;40719;-52
2024/01/23 01:04:26;;;;;;;;;19.67;15.00;;;;;3.70;85.01;100107.92;112812;240;40754;-54
2024/01/23 01:07:05;;;;;;;;;20.75;16.00;;;;;3.70;85.08;100116.13;112783;240;39377;-56
2024/01/23 01:09:41;;;;;;;;;20.00;14.00;;;;;3.70;85.21;100127.48;112767;240;41983;-55
2024/01/23 01:12:20;;;;;;;;;13.25;10.50;;;;;3.74;85.18;100129.82;112788;240;39444;-56
2024/01/23 01:15:07;;;;;;;;;13.75;11.00;;;;;3.78;85.35;100125.12;112817;240;39954;-52
2024/01/23 01:17:43;;;;;;;;;19.67;14.67;;;;;3.73;85.28;100125.57;112789;240;40131;-52
2024/01/23 01:20:23;;;;;;;;;10.00;8.00;;;;;3.65;85.51;100120.73;112822;240;39417;-52
2024/01/23 01:23:05;;;;;;;;;15.00;13.00;;;;;3.61;85.35;100121.08;112783;240;40305;-52
2024/01/23 01:25:45;;;;;;;;;18.50;13.00;;;;;3.60;85.49;100124.41;112816;240;41129;-55
2024/01/23 01:28:25;;;;;;;;;17.00;13.00;;;;;3.60;85.50;100131.23;112789;240;40800;-54
2024/01/23 01:31:06;;;;;;;;;17.00;12.00;;;;;3.61;85.53;100134.52;112853;240;39906;-51
2024/01/23 01:33:52;;;;;;;;;18.00;14.75;;;;;3.67;85.68;100137.47;112798;240;39263;-51
2024/01/23 01:36:32;;;;;;;;;18.33;14.00;;;;;3.71;85.74;100139.14;112790;240;40064;-52
2024/01/23 01:39:14;;;;;;;;;16.00;12.00;;;;;3.75;85.69;100141.40;112795;240;40316;-54
2024/01/23 01:41:57;;;;;;;;;15.25;12.25;;;;;3.77;85.78;100141.05;112779;240;40348;-54
2024/01/23 01:44:33;;;;;;;;;15.00;12.00;;;;;3.77;85.70;100143.38;112816;240;41019;-56
2024/01/23 01:47:20;;;;;;;;;15.00;12.00;;;;;3.79;85.92;100143.90;112793;240;39087;-56
2024/01/23 01:50:02;;;;;;;;;16.00;11.00;;;;;3.85;85.76;100144.02;112802;240;39369;-52
2024/01/23 01:52:42;;;;;;;;;17.00;13.00;;;;;3.85;85.76;100139.31;112817;240;39950;-52
2024/01/23 01:55:19;;;;;;;;;15.00;11.00;;;;;3.83;85.79;100135.06;112828;240;39288;-51
2024/01/23 01:57:59;;;;;;;;;16.00;12.50;;;;;3.80;85.84;100131.98;112799;240;39643;-51
2024/01/23 02:00:38;;;;;;;;;15.00;13.00;;;;;3.73;85.71;100130.02;112805;240;39228;-52
2024/01/23 02:03:17;;;;;;;;;14.00;12.50;;;;;3.69;85.89;100137.45;112804;240;39353;-52
2024/01/23 02:05:54;;;;;;;;;20.67;15.00;;;;;3.64;85.96;100141.09;112827;240;39189;-52
2024/01/23 02:08:35;;;;;;;;;16.00;11.75;;;;;3.62;86.01;100142.36;112781;240;40033;-52
2024/01/23 02:11:17;;;;;;;;;16.00;13.00;;;;;3.60;86.05;100149.75;112797;240;40470;-55
2024/01/23 02:13:55;;;;;;;;;18.00;13.00;;;;;3.58;86.25;100152.57;112812;240;40609;-54
2024/01/23 02:16:30;;;;;;;;;16.00;12.00;;;;;3.62;86.46;100150.56;112773;240;40205;-56
2024/01/23 02:19:10;;;;;;;;;18.00;13.00;;;;;3.63;86.46;100153.45;112779;240;39312;-51
2024/01/23 02:21:48;;;;;;;;;13.25;10.00;;;;;3.64;86.65;100160.84;112796;240;39786;-50
2024/01/23 02:24:31;;;;;;;;;16.00;12.25;;;;;3.70;86.39;100166.21;112840;240;40019;-51
2024/01/23 02:27:06;;;;;;;;;15.33;12.00;;;;;3.71;86.48;100164.25;112800;240;40040;-50
2024/01/23 02:29:42;;;;;;;;;15.50;12.00;;;;;3.74;86.71;100154.20;112844;240;40528;-54
2024/01/23 02:32:17;;;;;;;;;16.75;13.00;;;;;3.72;86.91;100162.40;112826;240;39385;-55
2024/01/23 02:34:56;;;;;;;;;13.67;11.00;;;;;3.69;86.80;100163.77;112816;240;40304;-52
2024/01/23 02:37:38;;;;;;;;;13.67;10.00;;;;;3.68;86.94;100164.09;112800;240;40133;-51
2024/01/23 02:40:14;;;;;;;;;9.25;7.00;;;;;3.66;86.95;100166.40;112826;240;41045;-51
2024/01/23 02:42:54;;;;;;;;;12.00;9.33;;;;;3.65;87.00;100161.19;112786;240;39614;-51
2024/01/23 02:45:35;;;;;;;;;16.00;11.00;;;;;3.60;87.06;100162.67;112801;240;41091;-54
2024/01/23 02:48:11;;;;;;;;;17.00;12.00;;;;;3.61;87.09;100163.05;112784;240;39633;-55
2024/01/23 02:50:53;;;;;;;;;15.25;12.00;;;;;3.63;87.14;100163.27;112784;240;39744;-52
2024/01/23 02:53:32;;;;;;;;;20.00;13.00;;;;;3.66;87.15;100162.14;112788;240;39528;-52
2024/01/23 02:56:10;;;;;;;;;15.00;11.00;;;;;3.70;87.11;100169.42;112822;240;40890;-52
2024/01/23 02:58:54;;;;;;;;;15.00;11.00;;;;;3.71;87.02;100175.52;112813;240;40946;-51
2024/01/23 03:01:37;;;;;;;;;19.50;13.00;;;;;3.74;87.08;100179.48;112792;240;39662;-55
2024/01/23 03:04:24;;;;;;;;;13.00;10.50;;;;;3.80;86.94;100189.95;112823;240;40430;-55
2024/01/23 03:07:03;;;;;;;;;11.25;9.00;;;;;3.88;87.21;100195.19;112784;240;39217;-56
2024/01/23 03:09:44;;;;;;;;;14.00;10.00;;;;;3.92;86.94;100192.30;112782;240;39167;-51
2024/01/23 03:12:27;;;;;;;;;15.00;10.33;;;;;3.91;87.14;100189.50;112836;240;39769;-51
2024/01/23 03:15:04;;;;;;;;;16.00;13.00;;;;;3.94;87.11;100193.35;112817;240;40467;-54
2024/01/23 03:17:41;;;;;;;;;18.25;15.50;;;;;3.94;87.01;100194.18;112824;240;40900;-54
2024/01/23 03:20:22;;;;;;;;;18.75;12.00;;;;;3.95;86.82;100191.45;112814;240;41477;-51
2024/01/23 03:22:59;;;;;;;;;13.00;10.00;;;;;3.90;86.78;100190.00;112816;240;41212;-51
2024/01/23 03:25:38;;;;;;;;;14.00;10.75;;;;;3.81;86.83;100190.38;112826;240;39783;-51
2024/01/23 03:28:15;;;;;;;;;12.33;8.33;;;;;3.69;86.61;100183.50;112767;240;39807;-50
2024/01/23 03:30:54;;;;;;;;;13.25;9.50;;;;;3.58;86.66;100191.16;112826;240;40968;-51
2024/01/23 03:33:38;;;;;;;;;10.25;8.25;;;;;3.46;86.80;100190.42;112803;240;40711;-51
2024/01/23 03:36:16;;;;;;;;;10.33;8.00;;;;;3.39;86.95;100185.26;112807;240;39795;-51
2024/01/23 03:38:56;;;;;;;;;16.25;12.00;;;;;3.33;87.21;100189.80;112762;240;39578;-52
2024/01/23 03:41:37;;;;;;;;;15.00;11.00;;;;;3.31;87.23;100189.66;112808;240;41364;-54
2024/01/23 03:44:18;;;;;;;;;13.00;11.00;;;;;3.31;87.45;100192.66;112829;240;41111;-54
2024/01/23 03:46:57;;;;;;;;;16.25;13.50;;;;;3.29;87.32;100199.19;112791;240;39716;-55
2024/01/23 03:49:39;;;;;;;;;14.00;9.00;;;;;3.28;87.26;100204.25;112847;240;39707;-52
2024/01/23 03:52:22;;;;;;;;;8.67;7.00;;;;;3.28;87.46;100195.55;112802;240;40426;-52
2024/01/23 03:55:01;;;;;;;;;12.25;10.00;;;;;3.28;87.68;100189.96;112815;240;40647;-51
2024/01/23 03:57:38;;;;;;;;;12.50;9.00;;;;;3.23;87.67;100188.26;112798;240;40205;-51
2024/01/23 04:00:16;;;;;;;;;12.00;9.00;;;;;3.20;87.82;100201.57;112777;240;39997;-52
2024/01/23 04:02:51;;;;;;;;;16.00;11.00;;;;;3.14;87.86;100200.72;112773;240;39529;-52
2024/01/23 04:05:32;;;;;;;;;10.00;7.00;;;;;3.10;87.88;100202.38;112795;240;40795;-55
2024/01/23 04:08:09;;;;;;;;;9.00;7.00;;;;;3.05;88.13;100206.77;112677;240;39410;-55
2024/01/23 04:10:46;;;;;;;;;14.25;10.75;;;;;3.01;88.06;100202.15;112791;240;39636;-55
2024/01/23 04:13:27;;;;;;;;;14.00;11.00;;;;;2.95;88.18;100207.08;112791;240;39330;-55
2024/01/23 04:16:07;;;;;;;;;13.00;10.25;;;;;2.89;88.04;100209.29;112806;240;39212;-53
2024/01/23 04:18:47;;;;;;;;;15.50;11.00;;;;;2.85;88.15;100205.97;112874;240;39389;-53
2024/01/23 04:21:27;;;;;;;;;14.00;9.67;;;;;2.88;88.29;100208.70;112823;240;39857;-50
2024/01/23 04:24:05;;;;;;;;;12.00;8.00;;;;;2.91;88.30;100214.06;112833;240;39629;-54
2024/01/23 04:26:44;;;;;;;;;14.25;10.00;;;;;2.95;88.56;100215.30;112856;240;39762;-55
2024/01/23 04:29:26;;;;;;;;;13.00;10.25;;;;;2.96;88.56;100217.20;112841;240;39376;-55
2024/01/23 04:32:03;;;;;;;;;14.50;11.00;;;;;2.94;88.49;100221.27;112883;240;40942;-55
2024/01/23 04:34:43;;;;;;;;;14.00;10.00;;;;;2.89;88.46;100227.80;112893;240;40589;-52
2024/01/23 04:37:25;;;;;;;;;18.00;13.00;;;;;2.80;88.52;100238.20;112889;240;39093;-52
2024/01/23 04:40:07;;;;;;;;;11.33;9.00;;;;;2.75;88.56;100235.70;112858;240;41804;-52
2024/01/23 04:42:49;;;;;;;;;9.00;6.33;;;;;2.73;88.72;100238.02;112822;240;39719;-52
2024/01/23 04:45:31;;;;;;;;;11.00;9.00;;;;;2.71;88.88;100231.43;112842;240;41040;-55
2024/01/23 04:48:08;;;;;;;;;12.25;9.00;;;;;2.74;89.15;100233.68;112801;240;40087;-56
2024/01/23 04:50:48;;;;;;;;;17.00;12.75;;;;;2.81;89.21;100236.98;112887;240;40059;-51
2024/01/23 04:53:29;;;;;;;;;13.00;9.00;;;;;2.81;89.26;100235.14;112861;240;40867;-51
2024/01/23 04:56:08;;;;;;;;;12.75;8.75;;;;;2.83;89.23;100241.02;112881;240;39177;-53
2024/01/23 04:58:49;;;;;;;;;14.75;10.00;;;;;2.85;89.19;100241.11;112903;240;40755;-53
2024/01/23 05:01:28;;;;;;;;;13.00;10.00;;;;;2.86;89.31;100238.02;112913;240;39710;-53
2024/01/23 05:04:06;;;;;;;;;11.00;9.00;;;;;2.89;89.47;100245.60;112910;240;40390;-55
2024/01/23 05:06:44;;;;;;;;;13.00;9.00;;;;;2.89;89.81;100249.84;112370;240;600678;-56
2024/01/23 05:09:21;;;;;;;;;12.67;10.67;;;;;2.85;89.72;100256.42;112868;240;40458;-53
2024/01/23 05:12:05;;;;;;;;;7.50;5.00;;;;;2.82;89.75;100259.77;112819;240;39249;-53
2024/01/23 05:14:44;;;;;;;;;8.00;7.00;;;;;2.79;89.71;100258.68;112820;240;40482;-55
2024/01/23 05:17:25;;;;;;;;;11.00;8.00;;;;;2.74;89.86;100260.54;112800;240;40437;-54
2024/01/23 05:20:04;;;;;;;;;9.50;7.75;;;;;2.73;90.19;100253.16;112791;240;40882;-56
2024/01/23 05:22:49;;;;;;;;;12.00;9.00;;;;;2.76;90.14;100252.92;112764;240;39498;-56
2024/01/23 05:25:27;;;;;;;;;10.00;8.00;;;;;2.76;90.05;100258.35;112869;240;40371;-53
2024/01/23 05:28:02;;;;;;;;;15.00;11.00;;;;;2.80;90.25;100258.93;112831;240;39708;-53
2024/01/23 05:30:43;;;;;;;;;10.00;9.00;;;;;2.83;90.29;100259.63;112854;240;40090;-54
2024/01/23 05:33:21;;;;;;;;;10.00;9.00;;;;;2.87;90.36;100263.38;112810;240;39245;-53
2024/01/23 05:35:59;;;;;;;;;10.25;8.00;;;;;2.85;90.20;100260.89;112829;240;39361;-51
2024/01/23 05:38:39;;;;;;;;;10.25;9.00;;;;;2.84;90.29;100264.02;112808;240;39807;-52
2024/01/23 05:41:17;;;;;;;;;14.67;10.00;;;;;2.76;90.23;100268.48;112829;240;39680;-51
2024/01/23 05:44:01;;;;;;;;;12.25;10.00;;;;;2.71;90.12;100272.66;112824;240;39916;-53
2024/01/23 05:46:42;;;;;;;;;10.25;8.00;;;;;2.67;90.15;100274.70;112826;240;40154;-54
2024/01/23 05:49:24;;;;;;;;;13.75;9.00;;;;;2.59;90.14;100276.39;112879;240;38932;-51
2024/01/23 05:52:01;;;;;;;;;7.50;6.75;;;;;2.51;90.25;100279.77;112844;240;40579;-51
2024/01/23 05:54:41;;;;;;;;;9.00;8.00;;;;;2.45;90.44;100280.84;112844;240;39892;-54
2024/01/23 05:57:22;;;;;;;;;12.33;9.00;;;;;2.43;90.67;100288.55;112831;240;39930;-54
2024/01/23 06:00:06;;;;;;;;;10.33;8.00;;;;;2.44;90.70;100292.54;112754;240;39800;-55
2024/01/23 06:02:50;;;;;;;;;14.00;11.00;;;;;2.47;90.93;100293.06;112776;240;38958;-56
2024/01/23 06:05:31;;;;;;;;;13.00;11.00;;;;;2.50;91.18;100297.27;112775;240;39545;-55
2024/01/23 06:08:10;;;;;;;;;13.50;11.00;;;;;2.48;91.04;100302.81;112793;240;39206;-56
2024/01/23 06:10:48;;;;;;;;;21.50;14.75;;;;;2.45;91.01;100306.48;112835;240;39240;-52
2024/01/23 06:13:24;;;;;;;;;15.00;11.00;;;;;2.42;91.11;100303.77;112803;240;40036;-52
2024/01/23 06:16:04;;;;;;;;;17.00;12.00;;;;;2.41;91.21;100301.88;112849;240;39655;-51
2024/01/23 06:18:44;;;;;;;;;13.75;10.50;;;;;2.45;91.14;100304.00;112810;240;40451;-51
2024/01/23 06:21:25;;;;;;;;;16.00;12.00;;;;;2.49;91.36;100304.12;112772;240;40648;-51
2024/01/23 06:24:03;;;;;;;;;10.00;8.00;;;;;2.51;91.31;100300.59;112808;240;39454;-55
2024/01/23 06:26:43;;;;;;;;;16.00;12.33;;;;;2.50;91.18;100297.98;112783;240;39738;-56
2024/01/23 06:29:25;;;;;;;;;16.75;11.00;;;;;2.48;91.15;100300.11;112829;240;41091;-55
2024/01/23 06:32:06;;;;;;;;;16.00;13.00;;;;;2.45;91.03;100298.23;112796;240;40124;-56
2024/01/23 06:34:43;;;;;;;;;15.25;11.00;;;;;2.43;91.10;100308.42;112851;240;40916;-52
2024/01/23 06:37:19;;;;;;;;;16.00;11.00;;;;;2.39;91.18;100312.45;112783;240;40611;-51
2024/01/23 06:39:56;;;;;;;;;15.00;10.00;;;;;2.42;91.46;100314.95;112808;240;39916;-51
2024/01/23 06:42:39;;;;;;;;;17.00;11.75;;;;;2.44;91.47;100321.43;112778;240;39768;-51
2024/01/23 06:45:20;;;;;;;;;15.00;12.00;;;;;2.48;91.67;100328.98;112813;240;39984;-53
2024/01/23 06:48:01;;;;;;;;;14.00;10.00;;;;;2.47;91.60;100331.92;112796;240;39275;-52
2024/01/23 06:50:38;;;;;;;;;16.00;11.67;;;;;2.42;91.63;100341.38;112865;240;40355;-52
2024/01/23 06:53:15;;;;;;;;;17.00;13.00;;;;;2.39;91.64;100347.70;112769;240;39817;-52
2024/01/23 06:55:58;;;;;;;;;14.50;11.75;;;;;2.34;91.56;100355.23;112790;240;41271;-55
2024/01/23 06:58:37;;;;;;;;;11.50;9.25;;;;;2.33;91.67;100355.33;112767;240;41248;-56
2024/01/23 07:01:20;;;;;;;;;19.50;14.00;;;;;2.37;91.91;100355.53;112833;240;39419;-54
2024/01/23 07:03:58;;;;;;;;;11.75;9.00;;;;;2.45;91.94;100355.93;112803;240;39847;-53
2024/01/23 07:06:43;;;;;;;;;17.00;13.75;;;;;2.49;92.06;100364.07;112817;240;39627;-52
2024/01/23 07:09:25;;;;;;;;;16.00;11.50;;;;;2.55;92.23;100365.76;112903;240;41020;-52
2024/01/23 07:12:03;;;;;;;;;19.00;14.00;;;;;2.69;92.30;100369.51;112872;240;39255;-51
2024/01/23 07:14:41;;;;;;;;;17.00;14.00;;;;;2.82;92.25;100372.34;112860;240;41127;-53
2024/01/23 07:17:20;;;;;;;;;17.67;12.00;;;;;2.98;92.35;100374.08;112843;240;39684;-52
2024/01/23 07:20:02;;;;;;;;;18.67;13.00;;;;;3.16;92.44;100377.20;112873;240;39279;-52
2024/01/23 07:22:48;;;;;;;;;18.00;14.00;;;;;3.49;92.49;100375.48;112870;240;39917;-50
2024/01/23 07:25:28;;;;;;;;;14.00;12.00;;;;;3.81;92.11;100379.36;112874;240;40601;-53
2024/01/23 07:28:06;;;;;;;;;13.00;10.00;;;;;4.00;92.00;100387.46;112864;240;39692;-53
2024/01/23 07:30:43;;;;;;;;;18.75;14.00;;;;;4.66;92.11;100402.19;112944;240;40083;-53
2024/01/23 07:33:23;;;;;;;;;23.00;18.00;;;;;5.46;91.65;100396.71;112871;240;41289;-54
2024/01/23 07:36:06;;;;;;;;;27.50;19.25;;;;;6.19;91.11;100396.56;112881;240;41251;-51
2024/01/23 07:38:48;;;;;;;;;16.00;13.00;;;;;6.65;90.39;100399.88;112904;240;40230;-51
2024/01/23 07:41:25;;;;;;;;;17.00;14.00;;;;;7.04;89.69;100404.04;112998;240;38951;-51
2024/01/23 07:44:04;;;;;;;;;19.50;15.00;;;;;7.06;88.14;100409.14;112982;240;40502;-56
2024/01/23 07:46:42;;;;;;;;;28.67;22.00;;;;;6.53;86.89;100405.58;112974;240;39794;-56
2024/01/23 07:49:21;;;;;;;;;16.00;14.00;;;;;6.03;86.37;100406.55;112950;240;41183;-55
2024/01/23 07:52:03;;;;;;;;;16.00;13.00;;;;;5.62;86.40;100415.25;112883;240;39875;-56
2024/01/23 07:54:45;;;;;;;;;13.00;11.25;;;;;5.35;86.62;100417.47;112928;240;39749;-52
2024/01/23 07:57:27;;;;;;;;;13.50;11.00;;;;;5.16;86.81;100426.52;112841;240;39803;-52
2024/01/23 08:00:07;;;;;;;;;17.50;13.25;;;;;5.01;86.74;100425.20;112880;240;39359;-53
2024/01/23 08:02:45;;;;;;;;;10.75;8.25;;;;;4.86;86.75;100426.70;112838;240;39338;-52
2024/01/23 08:05:20;;;;;;;;;17.75;13.25;;;;;4.74;86.92;100434.49;112860;240;39504;-55
2024/01/23 08:08:03;;;;;;;;;14.50;12.25;;;;;4.63;87.17;100435.23;112845;240;40591;-55
2024/01/23 08:10:43;;;;;;;;;16.00;12.00;;;;;4.59;87.20;100432.61;112890;240;41324;-56
2024/01/23 08:13:23;;;;;;;;;20.00;15.00;;;;;4.62;87.44;100430.73;112865;240;39592;-56
2024/01/23 08:16:04;;;;;;;;;15.00;11.00;;;;;4.58;87.52;100429.86;112874;240;39926;-56
2024/01/23 08:18:41;;;;;;;;;14.00;11.00;;;;;4.62;87.64;100437.48;112823;240;39665;-56
2024/01/23 08:21:24;;;;;;;;;10.75;8.50;;;;;4.66;87.59;100441.37;112846;240;39472;-53
2024/01/23 08:24:07;;;;;;;;;12.25;11.00;;;;;4.67;87.50;100441.45;112895;240;40699;-53
2024/01/23 08:26:47;;;;;;;;;18.00;14.00;;;;;4.68;87.46;100447.22;112852;240;40458;-54
2024/01/23 08:29:26;;;;;;;;;14.00;10.67;;;;;4.69;87.48;100451.05;112882;240;41092;-54
2024/01/23 08:32:05;;;;;;;;;11.00;9.00;;;;;4.68;87.53;100449.19;112788;240;39910;-54
2024/01/23 08:34:41;;;;;;;;;12.00;9.50;;;;;4.69;87.46;100456.42;112857;240;41003;-52
2024/01/23 08:37:19;;;;;;;;;11.75;9.25;;;;;4.70;87.45;100457.60;112804;240;40535;-52
2024/01/23 08:40:01;;;;;;;;;14.00;10.75;;;;;4.70;87.45;100458.80;112806;240;40592;-51
2024/01/23 08:42:44;;;;;;;;;12.00;9.50;;;;;4.72;87.51;100456.83;112759;240;39547;-51
2024/01/23 08:45:18;;;;;;;;;15.00;12.00;;;;;4.81;87.53;100463.98;112787;240;38923;-51
2024/01/23 08:47:56;;;;;;;;;12.25;10.00;;;;;4.92;87.57;100468.45;112757;240;41476;-51
2024/01/23 08:50:32;;;;;;;;;18.00;12.00;;;;;5.02;87.46;100472.77;112754;240;41652;-51
2024/01/23 08:53:13;;;;;;;;;15.25;12.75;;;;;5.16;87.38;100479.39;112757;240;39106;-52
2024/01/23 08:55:53;;;;;;;;;14.50;13.00;;;;;5.32;87.26;100479.32;112795;240;40974;-52
2024/01/23 08:58:36;;;;;;;;;14.25;10.50;;;;;5.54;87.46;100483.55;112795;240;39562;-52
2024/01/23 09:01:15;;;;;;;;;13.00;11.00;;;;;5.81;86.75;100477.55;112772;240;41200;-52
2024/01/23 09:03:52;;;;;;;;;15.00;12.00;;;;;5.96;86.49;100485.55;112772;240;39387;-53
2024/01/23 09:06:35;;;;;;;;;18.00;15.00;;;;;6.19;86.47;100483.23;112813;240;40163;-56
2024/01/23 09:09:17;;;;;;;;;15.67;11.33;;;;;6.51;86.32;100478.33;112807;240;40194;-56
2024/01/23 09:11:59;;;;;;;;;14.00;11.00;;;;;6.69;85.81;100484.14;112769;240;39829;-56
2024/01/23 09:14:44;;;;;;;;;22.25;17.00;;;;;6.63;85.40;100489.88;112801;240;40582;-57
2024/01/23 09:17:26;;;;;;;;;22.00;15.00;;;;;6.57;85.13;100494.06;112737;240;38827;-58
2024/01/23 09:20:08;;;;;;;;;14.25;11.50;;;;;6.48;84.25;100496.05;112793;240;40395;-56
2024/01/23 09:22:43;;;;;;;;;18.00;13.00;;;;;6.34;84.47;100496.13;112780;240;39424;-55
2024/01/23 09:25:18;;;;;;;;;19.00;15.50;;;;;6.29;84.30;100492.75;112822;240;40273;-56
2024/01/23 09:27:55;;;;;;;;;14.00;10.50;;;;;6.26;84.24;100501.84;112848;240;39059;-56
2024/01/23 09:30:34;;;;;;;;;16.67;13.00;;;;;6.28;84.24;100503.46;112891;240;39758;-55
2024/01/23 09:33:20;;;;;;;;;18.50;13.00;;;;;6.24;83.95;100504.59;112815;240;40396;-56
2024/01/23 09:35:57;;;;;;;;;20.50;15.00;;;;;6.19;83.77;100507.58;112792;240;39198;-52
2024/01/23 09:38:33;;;;;;;;;16.50;13.00;;;;;6.07;83.78;100514.74;112861;240;39833;-53
2024/01/23 09:41:13;;;;;;;;;9.00;8.00;;;;;5.96;83.60;100511.58;112845;240;40190;-54
2024/01/23 09:43:53;;;;;;;;;14.00;11.00;;;;;5.83;83.72;100511.86;112833;240;40856;-55
2024/01/23 09:46:34;;;;;;;;;12.00;10.00;;;;;5.78;83.66;100522.52;112837;240;40088;-54
2024/01/23 09:49:14;;;;;;;;;18.00;13.00;;;;;5.72;83.95;100520.30;112799;240;40544;-55
2024/01/23 09:51:55;;;;;;;;;14.50;12.00;;;;;5.66;84.01;100522.58;112749;240;39768;-55
2024/01/23 09:54:32;;;;;;;;;14.00;10.00;;;;;5.67;83.99;100518.36;112787;240;39561;-54
2024/01/23 09:57:10;;;;;;;;;22.00;15.75;;;;;5.62;84.21;100521.88;112794;240;39730;-54
2024/01/23 09:59:51;;;;;;;;;13.75;11.00;;;;;5.64;84.10;100529.50;112827;240;40762;-54
2024/01/23 10:02:34;;;;;;;;;19.25;16.00;;;;;5.65;84.17;100523.95;112798;240;39943;-54
2024/01/23 10:05:15;;;;;;;;;11.00;9.00;;;;;5.63;84.05;100527.31;112777;240;39288;-54
2024/01/23 10:07:54;;;;;;;;;14.00;11.00;;;;;5.67;84.08;100524.16;112872;240;39269;-53
2024/01/23 10:10:36;;;;;;;;;13.75;12.00;;;;;5.80;84.20;100527.04;112886;240;40357;-51
2024/01/23 10:13:18;;;;;;;;;12.00;9.00;;;;;5.89;84.01;100526.79;112785;240;39399;-51
2024/01/23 10:15:56;;;;;;;;;15.00;11.50;;;;;5.94;83.84;100530.34;112845;240;39750;-52
2024/01/23 10:18:36;;;;;;;;;16.00;11.00;;;;;5.98;83.94;100532.67;112782;240;40649;-52
2024/01/23 10:21:15;;;;;;;;;16.00;13.00;;;;;6.04;84.07;100530.95;112826;240;40789;-54
2024/01/23 10:23:59;;;;;;;;;13.00;9.00;;;;;6.05;84.09;100527.51;112810;240;40375;-54
2024/01/23 10:26:46;;;;;;;;;12.67;11.00;;;;;6.05;84.08;100534.98;112808;240;39928;-51
2024/01/23 10:29:21;;;;;;;;;16.00;13.00;;;;;6.10;83.74;100533.61;112822;240;39943;-54
2024/01/23 10:32:00;;;;;;;;;19.50;15.00;;;;;6.17;83.79;100530.00;112810;240;39002;-54
2024/01/23 10:34:36;;;;;;;;;17.00;13.00;;;;;6.22;83.72;100529.46;112802;240;39992;-56
2024/01/23 10:37:14;;;;;;;;;11.00;8.00;;;;;6.24;83.68;100531.19;112776;240;39887;-56
2024/01/23 10:40:01;;;;;;;;;11.00;9.00;;;;;6.25;83.42;100530.71;112836;240;40395;-51
2024/01/23 10:42:38;;;;;;;;;14.50;11.50;;;;;6.18;83.40;100532.90;112845;240;40324;-52
2024/01/23 10:45:16;;;;;;;;;12.25;11.00;;;;;6.07;83.44;100531.73;112806;240;39945;-56
2024/01/23 10:47:56;;;;;;;;;10.75;8.00;;;;;5.95;83.53;100524.42;112794;240;39252;-56
2024/01/23 10:50:38;;;;;;;;;10.75;8.00;;;;;5.84;83.77;100519.23;112800;240;39525;-54
2024/01/23 10:53:19;;;;;;;;;14.75;11.00;;;;;5.80;83.92;100525.58;112784;240;40899;-54
2024/01/23 10:55:58;;;;;;;;;10.00;8.00;;;;;5.72;84.07;100529.06;112823;240;40748;-51
2024/01/23 10:58:36;;;;;;;;;10.00;8.00;;;;;5.60;84.49;100534.05;112787;240;40420;-51
2024/01/23 11:01:16;;;;;;;;;10.75;9.00;;;;;5.60;84.62;100533.71;112829;240;40851;-54
2024/01/23 11:03:53;;;;;;;;;12.50;10.50;;;;;5.52;84.98;100534.28;112772;240;39781;-54
2024/01/23 11:06:34;;;;;;;;;11.00;8.50;;;;;5.50;84.96;100531.02;112786;240;39943;-50
2024/01/23 11:09:18;;;;;;;;;11.67;9.00;;;;;5.54;85.00;100535.40;112788;240;39710;-52
2024/01/23 11:12:07;;;;;;;;;12.33;10.33;;;;;5.56;85.12;100536.75;112777;240;39446;-53
2024/01/23 11:15:00;;;;;;;;;9.00;7.00;;;;;5.62;84.97;100540.13;112829;240;40837;-51
2024/01/23 11:17:39;;;;;;;;;14.00;10.50;;;;;5.59;84.84;100546.10;112782;240;41409;-51
2024/01/23 11:20:25;;;;;;;;;10.67;8.00;;;;;5.55;84.91;100540.98;112826;240;39338;-51
2024/01/23 11:23:17;;;;;;;;;12.00;10.00;;;;;5.55;84.79;100542.04;112769;240;40191;-51
2024/01/23 11:26:12;;;;;;;;;14.00;11.00;;;;;5.41;84.84;100547.58;112789;240;39420;-52
2024/01/23 11:28:51;;;;;;;;;15.00;12.00;;;;;5.30;84.92;100547.77;112772;240;39278;-51
2024/01/23 11:31:28;;;;;;;;;8.00;6.00;;;;;5.23;85.18;100550.83;112779;240;38980;-51
2024/01/23 11:34:41;;;;;;;;;9.33;7.00;;;;;5.28;85.11;100546.73;112829;240;40239;-54
2024/01/23 11:37:48;;;;;;;;;10.25;7.50;;;;;5.43;85.19;100546.15;112799;240;39691;-56
2024/01/23 11:40:42;;;;;;;;;11.33;8.00;;;;;5.54;84.89;100547.55;112798;240;39450;-52
2024/01/23 11:43:30;;;;;;;;;13.50;10.00;;;;;5.59;84.89;100541.65;112794;240;41033;-52
2024/01/23 11:46:11;;;;;;;;;9.00;7.00;;;;;5.65;84.86;100537.52;112827;240;41139;-51
2024/01/23 11:48:54;;;;;;;;;6.00;5.00;;;;;5.66;84.99;100537.92;112805;240;39290;-51
2024/01/23 11:51:37;;;;;;;;;15.00;11.00;;;;;5.67;84.83;100545.61;112782;240;40978;-51
2024/01/23 11:54:16;;;;;;;;;7.00;6.00;;;;;5.72;84.78;100538.77;112816;240;39506;-54
2024/01/23 11:56:58;;;;;;;;;8.00;6.00;;;;;5.72;84.64;100541.23;112784;240;40518;-55
2024/01/23 11:59:38;;;;;;;;;9.75;6.00;;;;;5.69;84.41;100547.53;112906;240;40504;-51
2024/01/23 12:02:16;;;;;;;;;7.00;5.67;;;;;5.62;84.36;100541.84;112917;240;40107;-51
2024/01/23 12:04:54;;;;;;;;;10.00;6.00;;;;;5.57;84.21;100539.55;112903;240;39744;-51
2024/01/23 12:07:37;;;;;;;;;6.00;5.00;;;;;5.51;84.13;100534.94;112882;240;39450;-51
2024/01/23 12:10:21;;;;;;;;;10.50;7.50;;;;;5.45;84.18;100536.09;112903;240;40275;-54
2024/01/23 12:12:59;;;;;;;;;8.25;6.00;;;;;5.45;84.35;100544.19;112823;240;39746;-55
2024/01/23 12:15:42;;;;;;;;;12.00;9.00;;;;;5.48;84.49;100545.32;112811;240;40401;-54
2024/01/23 12:18:26;;;;;;;;;6.00;6.00;;;;;5.54;84.61;100544.88;112789;240;41321;-55